Time;durP1;ratioP1;P1;durP2;ratioP2;P2;SDS_P1;SDS_P2;PMS_P1;PMS_P2;Temp;Humidity;BMP_temperature;BMP_pressure;BME280_temperature;BME280_humidity;BME280_pressure;Samples;Min_cycle;Max_cycle;Signal;HPM_P1;HPM_P2
2021/12/08 00:02:15;;;;;;;7.03;3.55;;;5.30;99.90;;;;;;5052854;28;20039;-81
2021/12/08 00:04:41;;;;;;;9.70;4.68;;;5.40;99.90;;;;;;5054377;28;20017;-82
2021/12/08 00:07:07;;;;;;;6.10;3.40;;;5.40;99.90;;;;;;5054444;28;20041;-81
2021/12/08 00:10:00;;;;;;;10.10;3.83;;;5.40;99.90;;;;;;5053468;28;20109;-81
2021/12/08 00:15:09;;;;;;;5.20;3.53;;;5.50;99.90;;;;;;5071424;28;20085;-82
2021/12/08 00:17:35;;;;;;;7.07;3.55;;;5.50;99.90;;;;;;5056103;28;20052;-81
2021/12/08 00:20:04;;;;;;;6.88;3.13;;;5.50;99.90;;;;;;5053967;28;20526;-81
2021/12/08 00:22:29;;;;;;;9.77;4.90;;;5.60;99.90;;;;;;5054687;28;20033;-82
2021/12/08 00:24:55;;;;;;;6.32;3.80;;;5.60;99.90;;;;;;5068996;28;20079;-80
2021/12/08 00:27:20;;;;;;;4.05;3.20;;;5.60;99.90;;;;;;5056519;28;20033;-81
2021/12/08 00:29:46;;;;;;;4.90;3.35;;;5.60;99.90;;;;;;5066088;28;20048;-80
2021/12/08 00:32:12;;;;;;;4.25;3.58;;;5.70;99.90;;;;;;5062225;28;20025;-81
2021/12/08 00:34:38;;;;;;;5.47;3.20;;;5.80;99.90;;;;;;5055206;28;20405;-81
2021/12/08 00:37:05;;;;;;;6.82;3.78;;;5.80;99.90;;;;;;5053741;28;20029;-82
2021/12/08 00:39:32;;;;;;;3.80;3.00;;;5.80;99.90;;;;;;5053847;28;20033;-81
2021/12/08 00:41:57;;;;;;;4.15;3.22;;;5.90;99.90;;;;;;5054263;28;20029;-82
2021/12/08 00:44:23;;;;;;;6.60;3.20;;;5.90;99.90;;;;;;5052847;28;20028;-82
2021/12/08 00:46:48;;;;;;;4.50;3.60;;;5.90;99.90;;;;;;5054644;28;20037;-81
2021/12/08 00:49:16;;;;;;;9.60;3.13;;;5.90;99.90;;;;;;5057586;28;20044;-81
2021/12/08 00:51:42;;;;;;;3.05;2.65;;;5.90;99.90;;;;;;5053898;28;20025;-82
2021/12/08 00:54:08;;;;;;;6.32;2.60;;;6.00;99.90;;;;;;5053729;28;20021;-82
2021/12/08 00:56:34;;;;;;;6.22;2.72;;;6.00;99.90;;;;;;5057179;28;20031;-84
2021/12/08 00:59:00;;;;;;;6.13;2.58;;;5.90;99.90;;;;;;5056825;28;20561;-81
2021/12/08 01:01:26;;;;;;;4.47;3.13;;;5.90;99.90;;;;;;5058798;28;20032;-82
2021/12/08 01:03:52;;;;;;;6.03;2.42;;;6.00;99.90;;;;;;5058919;28;20432;-83
2021/12/08 01:06:19;;;;;;;8.43;2.88;;;5.90;99.90;;;;;;5056630;28;20112;-82
2021/12/08 01:08:45;;;;;;;3.47;2.35;;;5.90;99.90;;;;;;5060245;28;20163;-82
2021/12/08 01:11:16;;;;;;;4.55;2.40;;;6.00;99.90;;;;;;5058493;28;20084;-83
2021/12/08 01:13:45;;;;;;;7.70;2.60;;;6.00;99.90;;;;;;5057798;28;20029;-82
2021/12/08 01:16:11;;;;;;;4.25;2.28;;;6.10;99.90;;;;;;5057391;28;20024;-82
2021/12/08 01:18:36;;;;;;;4.53;2.40;;;6.10;99.90;;;;;;5058330;28;20040;-83
2021/12/08 01:21:06;;;;;;;4.22;2.13;;;6.20;99.90;;;;;;5057172;28;20116;-82
2021/12/08 01:23:32;;;;;;;6.97;2.67;;;6.20;99.90;;;;;;5060364;28;20048;-82
2021/12/08 01:25:57;;;;;;;4.47;2.90;;;6.20;99.90;;;;;;5058258;28;20374;-82
2021/12/08 01:28:27;;;;;;;3.55;2.60;;;6.20;99.90;;;;;;5056497;28;20005;-81
2021/12/08 01:30:54;;;;;;;5.05;2.15;;;6.30;99.90;;;;;;5057446;28;20033;-82
2021/12/08 01:33:21;;;;;;;5.60;2.72;;;6.30;99.90;;;;;;5056211;28;20067;-81
2021/12/08 01:35:47;;;;;;;6.43;2.65;;;6.30;99.90;;;;;;5057165;28;20021;-83
2021/12/08 01:38:13;;;;;;;6.45;3.90;;;6.30;99.90;;;;;;5056563;28;20021;-82
2021/12/08 01:40:39;;;;;;;4.70;2.95;;;6.40;99.90;;;;;;5057224;28;20025;-83
2021/12/08 01:43:12;;;;;;;5.53;2.85;;;6.40;99.90;;;;;;5057356;28;20025;-83
2021/12/08 01:48:23;;;;;;;7.47;2.47;;;6.40;99.90;;;;;;5041294;28;20032;-82
2021/12/08 01:50:52;;;;;;;2.80;2.58;;;6.30;99.90;;;;;;5038405;28;20040;-81
2021/12/08 01:53:18;;;;;;;5.25;2.33;;;6.30;99.90;;;;;;5038247;28;20022;-83
2021/12/08 01:55:44;;;;;;;5.10;3.08;;;6.20;99.90;;;;;;5038328;28;20036;-83
2021/12/08 01:58:10;;;;;;;4.45;2.88;;;6.30;99.90;;;;;;5036769;28;20052;-82
2021/12/08 02:00:47;;;;;;;6.82;3.28;;;6.30;99.90;;;;;;5037209;28;20033;-83
2021/12/08 02:03:14;;;;;;;6.07;3.30;;;6.40;99.90;;;;;;5039156;28;20045;-81
2021/12/08 02:05:41;;;;;;;8.35;3.10;;;6.30;99.90;;;;;;5047960;28;20046;-83
2021/12/08 02:08:08;;;;;;;6.95;3.58;;;6.40;99.90;;;;;;5036084;28;20045;-82
2021/12/08 02:10:37;;;;;;;4.03;3.53;;;6.40;99.90;;;;;;5039304;28;20440;-82
2021/12/08 02:13:04;;;;;;;6.10;3.42;;;6.40;99.90;;;;;;5036550;28;20083;-82
2021/12/08 02:15:29;;;;;;;5.20;3.17;;;6.50;99.90;;;;;;5043781;28;20033;-81
2021/12/08 02:17:56;;;;;;;6.25;2.92;;;6.50;99.90;;;;;;5052144;28;20029;-82
2021/12/08 02:20:26;;;;;;;5.35;3.35;;;6.40;99.90;;;;;;5036968;28;20025;-82
2021/12/08 02:22:52;;;;;;;7.45;3.30;;;6.40;99.90;;;;;;5036502;28;20120;-82
2021/12/08 02:25:23;;;;;;;5.63;3.25;;;6.50;99.90;;;;;;5042327;28;20017;-83
2021/12/08 02:27:50;;;;;;;9.20;4.22;;;6.50;99.90;;;;;;5050234;28;20057;-82
2021/12/08 02:30:28;;;;;;;5.85;3.33;;;6.50;99.90;;;;;;5046250;28;20053;-81
2021/12/08 02:49:03;;;;;;;7.25;3.97;;;6.80;99.90;;;;;;5035977;28;20087;-83
2021/12/08 02:51:29;;;;;;;9.35;3.40;;;6.70;99.90;;;;;;5035661;28;20461;-83
2021/12/08 02:53:54;;;;;;;10.57;3.42;;;6.80;99.90;;;;;;5036798;28;20156;-82
2021/12/08 02:56:20;;;;;;;6.53;3.33;;;6.80;99.90;;;;;;5036436;28;20112;-83
2021/12/08 02:58:47;;;;;;;6.88;3.17;;;6.70;99.90;;;;;;5035709;28;20036;-82
2021/12/08 03:01:14;;;;;;;8.85;3.42;;;6.70;99.90;;;;;;5037156;28;20028;-83
2021/12/08 03:03:40;;;;;;;5.30;3.10;;;6.70;99.90;;;;;;5039113;28;20033;-82
2021/12/08 03:06:06;;;;;;;15.23;4.10;;;6.70;99.90;;;;;;5034859;28;20128;-82
2021/12/08 03:08:32;;;;;;;15.77;4.20;;;6.70;99.90;;;;;;5036173;28;20028;-82
2021/12/08 03:10:58;;;;;;;9.13;3.45;;;6.70;99.90;;;;;;5036559;28;20053;-83
2021/12/08 03:13:33;;;;;;;6.97;3.00;;;6.70;99.90;;;;;;5036716;28;20030;-83
2021/12/08 03:15:59;;;;;;;14.38;3.83;;;6.70;99.90;;;;;;5035645;28;20355;-83
2021/12/08 03:18:32;;;;;;;10.18;2.95;;;6.70;99.90;;;;;;5035353;28;20024;-84
2021/12/08 03:20:59;;;;;;;7.30;2.55;;;6.70;99.90;;;;;;5035804;28;20042;-83
2021/12/08 03:23:31;;;;;;;7.90;2.22;;;6.70;99.90;;;;;;5036081;28;20022;-82
2021/12/08 03:25:59;;;;;;;20.75;3.42;;;6.70;99.90;;;;;;5035573;28;20037;-82
2021/12/08 03:28:30;;;;;;;6.40;2.53;;;6.70;99.90;;;;;;5035695;28;20026;-83
2021/12/08 03:33:24;;;;;;;7.75;2.75;;;6.60;99.90;;;;;;5034618;28;20033;-82
2021/12/08 03:35:50;;;;;;;12.75;2.60;;;6.60;99.90;;;;;;5036379;28;20031;-82
2021/12/08 03:38:18;;;;;;;8.95;3.08;;;6.50;99.90;;;;;;5048191;28;20044;-82
2021/12/08 03:40:44;;;;;;;7.53;2.42;;;6.40;99.90;;;;;;5035697;28;20393;-83
2021/12/08 03:43:12;;;;;;;8.27;3.03;;;6.50;99.90;;;;;;5035730;28;20025;-84
2021/12/08 03:45:44;;;;;;;12.60;2.50;;;6.50;99.90;;;;;;5035409;28;20036;-83
2021/12/08 03:48:14;;;;;;;7.75;2.95;;;6.60;99.90;;;;;;5035235;28;20025;-82
2021/12/08 03:50:42;;;;;;;7.30;2.28;;;6.50;99.90;;;;;;5035336;28;20022;-82
2021/12/08 03:53:09;;;;;;;5.95;2.20;;;6.50;99.90;;;;;;5035275;28;20530;-83
2021/12/08 03:55:37;;;;;;;9.30;2.85;;;6.40;99.90;;;;;;5034826;28;20022;-84
2021/12/08 03:58:03;;;;;;;9.65;2.47;;;5.80;99.90;;;;;;5037258;28;20013;-82
2021/12/08 04:00:29;;;;;;;8.52;2.45;;;6.40;99.90;;;;;;5035607;28;20469;-83
2021/12/08 04:02:58;;;;;;;4.13;2.30;;;6.40;99.90;;;;;;5035230;28;20072;-84
2021/12/08 04:05:39;;;;;;;7.05;2.50;;;6.30;99.90;;;;;;5035671;28;20200;-83
2021/12/08 04:08:14;;;;;;;5.90;1.83;;;6.30;99.90;;;;;;5035112;28;20037;-82
2021/12/08 04:10:41;;;;;;;3.40;1.60;;;6.30;99.90;;;;;;5036531;28;20132;-82
2021/12/08 04:13:07;;;;;;;10.43;3.10;;;6.30;99.90;;;;;;5039419;28;20015;-83
2021/12/08 04:15:32;;;;;;;5.78;2.45;;;6.20;99.90;;;;;;5042913;28;20029;-82
2021/12/08 04:17:58;;;;;;;6.88;1.70;;;6.10;99.90;;;;;;5055784;28;20025;-83
2021/12/08 04:20:30;;;;;;;7.28;1.88;;;6.10;99.90;;;;;;5038008;28;20030;-83
2021/12/08 04:22:58;;;;;;;4.35;1.58;;;6.00;99.90;;;;;;5034709;28;20044;-83
2021/12/08 04:25:33;;;;;;;6.97;1.90;;;5.90;99.90;;;;;;5035527;28;20053;-81
2021/12/08 04:28:03;;;;;;;6.32;1.60;;;6.00;99.90;;;;;;5054433;28;20037;-82
2021/12/08 04:30:43;;;;;;;10.85;1.63;;;6.00;99.90;;;;;;5037837;28;20071;-82
2021/12/08 04:33:09;;;;;;;4.82;2.10;;;5.90;99.90;;;;;;5056441;28;20053;-82
2021/12/08 04:35:37;;;;;;;6.97;2.25;;;5.80;99.90;;;;;;5038052;28;20585;-82
2021/12/08 04:38:09;;;;;;;6.90;1.55;;;5.70;99.90;;;;;;5038802;28;20029;-82
2021/12/08 04:43:18;;;;;;;6.80;1.25;;;5.70;99.90;;;;;;5037973;28;20488;-83
2021/12/08 04:46:09;;;;;;;7.03;1.90;;;5.60;99.90;;;;;;5038858;28;20544;-82
2021/12/08 04:48:59;;;;;;;5.40;1.60;;;5.60;99.90;;;;;;5039679;28;20037;-81
2021/12/08 04:51:41;;;;;;;5.50;2.28;;;5.50;99.90;;;;;;5037432;28;20029;-82
2021/12/08 05:08:00;;;;;;;9.52;1.73;;;5.50;99.90;;;;;;5038438;28;20115;-83
2021/12/08 05:10:36;;;;;;;8.85;1.70;;;5.50;99.90;;;;;;5041408;28;20025;-82
2021/12/08 05:13:06;;;;;;;3.83;1.42;;;5.60;99.90;;;;;;5044065;28;20033;-81
2021/12/08 05:15:42;;;;;;;7.05;1.25;;;5.60;99.90;;;;;;5039976;28;20026;-82
2021/12/08 05:18:13;;;;;;;9.00;1.60;;;5.50;99.90;;;;;;5041380;28;20095;-82
2021/12/08 05:21:05;;;;;;;9.18;1.73;;;5.50;99.90;;;;;;5037924;28;20018;-82
2021/12/08 05:23:54;;;;;;;10.48;2.00;;;5.40;99.90;;;;;;5037784;28;20539;-83
2021/12/08 05:26:32;;;;;;;5.10;1.17;;;5.40;99.90;;;;;;5036111;28;20045;-82
2021/12/08 05:29:04;;;;;;;8.00;1.50;;;5.30;99.90;;;;;;5039690;28;20487;-82
2021/12/08 05:31:31;;;;;;;10.77;1.58;;;5.30;99.90;;;;;;5037975;28;20021;-82
2021/12/08 05:33:57;;;;;;;7.93;1.83;;;5.30;99.90;;;;;;5038032;28;20442;-82
2021/12/08 05:36:23;;;;;;;5.75;1.60;;;5.20;99.90;;;;;;5038069;28;20053;-82
2021/12/08 05:38:51;;;;;;;3.70;1.38;;;5.30;99.90;;;;;;5038334;28;20048;-82
2021/12/08 05:41:30;;;;;;;5.20;1.17;;;5.20;99.90;;;;;;5036965;28;20005;-81
2021/12/08 05:43:57;;;;;;;8.05;1.35;;;5.20;99.90;;;;;;5037539;28;20028;-82
2021/12/08 05:46:25;;;;;;;2.30;1.00;;;5.20;99.90;;;;;;5037554;28;20084;-81
2021/12/08 05:48:52;;;;;;;2.47;1.02;;;5.20;99.90;;;;;;5036968;28;20414;-82
2021/12/08 05:51:24;;;;;;;8.88;1.30;;;5.20;99.90;;;;;;5036496;28;20060;-82
2021/12/08 05:53:55;;;;;;;7.28;1.33;;;5.20;99.90;;;;;;5037043;28;20414;-82
2021/12/08 05:56:22;;;;;;;4.70;1.58;;;5.10;99.90;;;;;;5036904;28;20551;-83
2021/12/08 05:58:53;;;;;;;12.25;3.53;;;5.10;99.90;;;;;;5038165;28;20056;-82
2021/12/08 06:01:34;;;;;;;4.30;1.02;;;5.10;99.90;;;;;;5043080;28;20029;-82
2021/12/08 06:04:02;;;;;;;8.35;1.20;;;5.00;99.90;;;;;;5043510;28;20025;-82
2021/12/08 06:06:34;;;;;;;7.90;1.80;;;5.00;99.90;;;;;;5040032;28;20073;-82
2021/12/08 06:08:59;;;;;;;3.55;1.50;;;5.00;99.90;;;;;;5038707;28;20057;-82
2021/12/08 06:11:27;;;;;;;7.20;1.08;;;5.00;99.90;;;;;;5037529;28;20077;-80
2021/12/08 06:13:59;;;;;;;4.43;0.93;;;5.00;99.90;;;;;;5035275;28;20029;-81
2021/12/08 06:16:29;;;;;;;5.28;1.27;;;5.10;99.90;;;;;;5038323;28;20075;-80
2021/12/08 06:18:56;;;;;;;10.63;2.03;;;5.00;99.90;;;;;;5052399;28;20022;-81
2021/12/08 06:21:24;;;;;;;14.00;2.08;;;5.00;99.90;;;;;;5041578;28;20147;-82
2021/12/08 06:23:51;;;;;;;14.05;1.73;;;5.10;99.90;;;;;;5044792;28;20040;-82
2021/12/08 06:26:19;;;;;;;11.40;1.92;;;5.00;99.90;;;;;;5049216;28;20033;-82
2021/12/08 06:28:44;;;;;;;6.72;1.42;;;5.00;99.90;;;;;;5062496;28;20057;-81
2021/12/08 06:31:14;;;;;;;4.43;1.10;;;5.00;99.90;;;;;;5052565;28;20036;-81
2021/12/08 06:33:40;;;;;;;8.38;1.20;;;5.00;99.90;;;;;;5058139;28;20037;-81
2021/12/08 06:36:21;;;;;;;7.13;1.35;;;4.90;99.90;;;;;;5044095;28;20474;-81
2021/12/08 06:38:47;;;;;;;12.02;1.40;;;4.90;99.90;;;;;;5044282;28;20028;-82
2021/12/08 06:41:22;;;;;;;10.00;1.40;;;4.90;99.90;;;;;;5053726;28;20479;-82
2021/12/08 06:43:54;;;;;;;7.65;1.50;;;4.80;99.90;;;;;;5052573;28;20025;-82
2021/12/08 06:46:22;;;;;;;5.70;1.25;;;4.90;99.90;;;;;;5062403;28;20481;-81
2021/12/08 06:48:52;;;;;;;7.00;1.60;;;4.90;99.90;;;;;;5054551;28;20032;-81
2021/12/08 06:51:22;;;;;;;7.28;1.50;;;4.90;99.90;;;;;;5049527;28;20025;-81
2021/12/08 06:53:53;;;;;;;9.75;1.30;;;4.80;99.90;;;;;;5052236;28;20072;-82
2021/12/08 06:56:21;;;;;;;;;;;4.80;99.90;;;;;;5048323;28;20025;-81
2021/12/08 06:58:50;;;;;;;8.23;1.30;;;4.80;99.90;;;;;;5054857;28;20430;-82
2021/12/08 07:01:41;;;;;;;7.32;2.08;;;4.80;99.90;;;;;;5056724;28;20051;-80
2021/12/08 07:04:26;;;;;;;;;;;4.80;99.90;;;;;;5055385;28;20092;-81
2021/12/08 07:07:09;;;;;;;6.75;1.80;;;4.80;99.90;;;;;;5054292;28;19913;-81
2021/12/08 07:09:46;;;;;;;7.72;1.10;;;4.80;99.90;;;;;;5054231;28;20495;-81
2021/12/08 07:12:46;;;;;;;7.45;1.38;;;4.80;99.90;;;;;;5048559;28;20099;-81
2021/12/08 07:15:14;;;;;;;7.43;1.55;;;4.80;99.90;;;;;;5017039;28;20025;-81
2021/12/08 07:17:43;;;;;;;7.07;1.77;;;4.80;99.90;;;;;;5053878;28;20092;-82
2021/12/08 07:20:17;;;;;;;11.85;1.80;;;4.80;99.90;;;;;;5050318;28;20079;-81
2021/12/08 07:22:51;;;;;;;6.32;1.73;;;4.70;99.90;;;;;;5051250;28;20030;-82
2021/12/08 07:25:19;;;;;;;10.65;2.20;;;4.70;99.90;;;;;;5052686;28;20028;-81
2021/12/08 07:27:46;;;;;;;4.55;1.50;;;4.60;99.90;;;;;;5053844;28;20033;-81
2021/12/08 07:30:18;;;;;;;7.25;1.58;;;4.60;99.90;;;;;;5048265;28;20021;-81
2021/12/08 07:32:44;;;;;;;10.50;2.03;;;4.60;99.90;;;;;;5054813;28;20033;-81
2021/12/08 07:35:23;;;;;;;8.25;2.28;;;4.60;99.90;;;;;;5050932;28;20022;-81
2021/12/08 07:37:49;;;;;;;8.43;1.50;;;4.70;99.90;;;;;;5053540;28;20031;-81
2021/12/08 07:40:17;;;;;;;10.57;2.50;;;4.70;99.90;;;;;;5049597;28;20056;-75
2021/12/08 07:42:50;;;;;;;10.63;2.03;;;4.70;99.90;;;;;;5049001;28;20476;-77
2021/12/08 07:45:22;;;;;;;6.35;2.15;;;4.70;99.90;;;;;;5051054;28;20119;-78
2021/12/08 07:47:51;;;;;;;5.15;1.77;;;4.80;99.90;;;;;;5047574;28;20029;-76
2021/12/08 07:50:29;;;;;;;5.88;1.80;;;4.70;99.90;;;;;;5035864;28;20485;-77
2021/12/08 07:52:55;;;;;;;5.00;1.90;;;4.70;99.90;;;;;;5034164;28;20488;-76
2021/12/08 07:55:36;;;;;;;9.68;1.83;;;4.70;99.90;;;;;;5033245;28;20021;-76
2021/12/08 07:58:03;;;;;;;12.48;2.05;;;4.70;99.90;;;;;;5042393;28;20032;-77
2021/12/08 08:00:34;;;;;;;6.43;2.00;;;4.60;99.90;;;;;;5039652;28;20397;-77
2021/12/08 08:03:01;;;;;;;9.77;2.17;;;4.70;99.90;;;;;;5041499;28;20033;-78
2021/12/08 08:05:28;;;;;;;10.05;1.80;;;4.70;99.90;;;;;;5044091;28;20384;-76
2021/12/08 08:07:57;;;;;;;9.88;1.95;;;4.80;99.90;;;;;;5055999;28;20024;-75
2021/12/08 08:10:26;;;;;;;6.53;1.60;;;4.80;99.90;;;;;;5037475;28;20025;-75
2021/12/08 08:12:57;;;;;;;7.35;1.90;;;4.80;99.90;;;;;;5032507;28;20041;-77
2021/12/08 08:15:25;;;;;;;7.85;2.17;;;4.80;99.90;;;;;;5032045;28;20030;-77
2021/12/08 08:17:53;;;;;;;8.27;1.35;;;4.80;99.90;;;;;;5033260;28;20051;-76
2021/12/08 08:20:27;;;;;;;5.05;1.48;;;4.80;99.90;;;;;;5033677;28;20055;-76
2021/12/08 08:22:54;;;;;;;8.68;1.90;;;4.90;99.90;;;;;;5032188;28;20027;-76
2021/12/08 08:25:23;;;;;;;8.95;1.65;;;4.90;99.90;;;;;;5031920;28;20021;-82
2021/12/08 08:27:49;;;;;;;4.85;1.50;;;4.90;99.90;;;;;;5032106;28;20041;-77
2021/12/08 08:30:19;;;;;;;4.78;1.30;;;4.90;99.90;;;;;;5039264;28;20021;-76
2021/12/08 08:32:52;;;;;;;4.18;1.30;;;4.90;99.90;;;;;;5052998;28;20025;-77
2021/12/08 08:35:17;;;;;;;7.80;1.45;;;5.00;99.90;;;;;;5047738;28;20033;-76
2021/12/08 08:37:44;;;;;;;11.82;1.52;;;5.00;99.90;;;;;;5032838;28;20040;-74
2021/12/08 08:40:19;;;;;;;6.65;2.08;;;5.10;99.90;;;;;;5041862;28;20078;-75
2021/12/08 08:42:47;;;;;;;6.72;1.08;;;5.20;99.90;;;;;;5049306;28;20104;-75
2021/12/08 08:45:26;;;;;;;9.48;1.33;;;5.20;99.90;;;;;;5050460;28;20028;-75
2021/12/08 08:47:58;;;;;;;7.22;1.65;;;5.30;99.90;;;;;;5046829;28;20045;-76
2021/12/08 08:50:41;;;;;;;6.57;1.58;;;5.30;99.90;;;;;;5046824;28;20063;-76
2021/12/08 08:53:07;;;;;;;7.13;1.60;;;5.30;99.90;;;;;;5047531;28;20029;-76
2021/12/08 08:55:57;;;;;;;8.88;1.50;;;5.30;99.90;;;;;;5050284;28;20056;-77
2021/12/08 08:58:25;;;;;;;6.53;1.42;;;5.30;99.90;;;;;;5047875;28;20041;-77
2021/12/08 09:00:58;;;;;;;7.82;2.00;;;5.40;99.90;;;;;;5050888;28;20037;-75
2021/12/08 09:03:32;;;;;;;7.32;1.33;;;5.50;99.90;;;;;;5049985;28;20032;-75
2021/12/08 09:06:05;;;;;;;9.88;1.92;;;5.40;99.90;;;;;;5050224;28;20477;-76
2021/12/08 09:08:33;;;;;;;9.35;1.95;;;5.50;99.90;;;;;;5047857;28;20029;-76
2021/12/08 09:11:06;;;;;;;11.02;1.95;;;5.50;99.90;;;;;;5047446;28;20519;-76
2021/12/08 09:13:38;;;;;;;9.55;1.23;;;5.50;99.90;;;;;;5049481;28;20104;-76
2021/12/08 09:16:15;;;;;;;5.55;1.23;;;5.60;99.90;;;;;;5048723;28;20033;-76
2021/12/08 09:18:52;;;;;;;6.70;1.10;;;5.20;99.90;;;;;;5048614;28;20040;-72
2021/12/08 09:21:39;;;;;;;10.52;1.70;;;5.70;99.90;;;;;;5051806;28;20041;-74
2021/12/08 09:24:13;;;;;;;6.25;1.27;;;5.80;99.90;;;;;;5052174;28;20051;-75
2021/12/08 09:26:45;;;;;;;5.32;1.92;;;5.90;99.90;;;;;;5053838;28;20045;-77
2021/12/08 09:29:20;;;;;;;5.20;0.98;;;5.90;99.90;;;;;;5053577;28;20021;-76
2021/12/08 09:32:05;;;;;;;6.43;1.20;;;5.90;99.90;;;;;;5052705;28;20041;-76
2021/12/08 09:34:37;;;;;;;7.93;1.75;;;5.90;99.90;;;;;;5053690;28;20439;-75
2021/12/08 09:37:18;;;;;;;8.05;1.00;;;5.90;99.90;;;;;;5054783;28;20021;-78
2021/12/08 09:39:51;;;;;;;5.95;1.63;;;6.00;99.90;;;;;;5051518;28;20029;-77
2021/12/08 09:42:22;;;;;;;11.23;2.78;;;6.00;99.90;;;;;;5051430;28;20123;-76
2021/12/08 09:44:53;;;;;;;4.28;1.10;;;6.00;99.90;;;;;;5053252;28;20029;-76
2021/12/08 09:47:19;;;;;;;;;;;6.00;99.90;;;;;;5052579;28;20473;-76
2021/12/08 09:49:47;;;;;;;7.63;1.35;;;6.10;99.90;;;;;;5050856;28;19911;-76
2021/12/08 09:52:17;;;;;;;5.13;1.45;;;6.10;99.90;;;;;;5054530;28;20029;-78
2021/12/08 09:54:42;;;;;;;5.63;1.30;;;6.20;99.90;;;;;;5052789;28;20033;-78
2021/12/08 09:57:13;;;;;;;10.30;2.53;;;6.20;99.90;;;;;;5053053;28;20032;-78
2021/12/08 09:59:46;;;;;;;5.47;1.38;;;6.30;99.90;;;;;;5052926;28;20036;-77
2021/12/08 10:02:14;;;;;;;8.68;2.70;;;6.30;99.90;;;;;;5050876;28;20033;-77
2021/12/08 10:04:39;;;;;;;2.88;1.60;;;6.40;99.90;;;;;;5053181;28;20037;-76
2021/12/08 10:07:07;;;;;;;6.18;1.65;;;6.40;99.90;;;;;;5052676;28;20043;-77
2021/12/08 10:09:32;;;;;;;7.90;2.35;;;6.40;99.90;;;;;;5053068;28;20071;-77
2021/12/08 10:11:58;;;;;;;5.28;2.20;;;6.40;99.90;;;;;;5053125;28;20053;-79
2021/12/08 10:14:25;;;;;;;8.18;2.13;;;6.50;99.90;;;;;;5052237;28;20416;-78
2021/12/08 10:16:53;;;;;;;8.02;1.80;;;6.50;99.90;;;;;;5052882;28;20025;-78
2021/12/08 10:19:19;;;;;;;3.65;1.70;;;6.50;99.90;;;;;;5052783;28;20021;-77
2021/12/08 10:21:45;;;;;;;4.22;1.95;;;6.60;99.90;;;;;;5049336;28;20035;-77
2021/12/08 10:24:29;;;;;;;3.45;1.73;;;6.60;99.90;;;;;;5051910;28;20025;-78
2021/12/08 10:27:06;;;;;;;7.25;1.73;;;6.70;99.90;;;;;;5052516;28;20071;-77
2021/12/08 10:29:32;;;;;;;7.25;1.77;;;6.70;99.90;;;;;;5050998;28;20025;-78
2021/12/08 10:32:00;;;;;;;5.32;1.52;;;6.80;99.90;;;;;;5053178;28;20106;-78
2021/12/08 10:34:36;;;;;;;4.18;1.45;;;6.90;99.90;;;;;;5052975;28;20036;-79
2021/12/08 10:37:09;;;;;;;3.33;1.95;;;6.90;99.90;;;;;;5052716;28;20432;-77
2021/12/08 10:39:37;;;;;;;3.63;1.70;;;6.90;99.90;;;;;;5052278;28;20029;-79
2021/12/08 10:42:06;;;;;;;3.83;1.73;;;6.90;99.90;;;;;;5052749;28;20029;-77
2021/12/08 10:44:47;;;;;;;4.93;2.03;;;6.90;99.90;;;;;;5053408;28;20021;-77
2021/12/08 10:47:19;;;;;;;5.88;1.90;;;6.90;99.90;;;;;;5053165;28;20489;-78
2021/12/08 10:55:11;;;;;;;2.50;1.85;;;6.90;99.90;;;;;;5053432;28;20511;-78
2021/12/08 10:57:38;;;;;;;4.40;1.92;;;6.90;99.90;;;;;;5049334;28;20392;-75
2021/12/08 11:00:16;;;;;;;4.35;2.03;;;6.90;99.90;;;;;;5052073;28;20059;-76
2021/12/08 11:02:50;;;;;;;6.18;2.75;;;6.90;99.90;;;;;;5052880;28;20555;-77
2021/12/08 11:05:24;;;;;;;2.25;2.05;;;6.90;99.90;;;;;;5051675;28;20025;-76
2021/12/08 11:08:15;;;;;;;4.10;2.70;;;6.90;99.90;;;;;;5052725;28;20029;-76
2021/12/08 11:10:41;;;;;;;3.72;2.03;;;6.90;99.90;;;;;;5051302;28;20622;-77
2021/12/08 11:13:07;;;;;;;5.43;1.95;;;6.90;99.90;;;;;;5051889;28;20061;-77
2021/12/08 11:15:33;;;;;;;8.75;1.88;;;7.00;99.90;;;;;;5048752;28;20036;-76
2021/12/08 11:18:13;;;;;;;4.10;1.90;;;7.00;99.90;;;;;;5052281;28;20027;-77
2021/12/08 11:21:13;;;;;;;4.95;1.85;;;7.00;99.90;;;;;;5057273;28;20079;-76
2021/12/08 11:23:40;;;;;;;7.90;2.33;;;7.00;99.90;;;;;;5054063;28;20029;-78
2021/12/08 11:26:27;;;;;;;3.67;2.03;;;7.00;99.90;;;;;;5058450;28;20033;-77
2021/12/08 11:29:06;;;;;;;3.80;1.70;;;7.00;99.90;;;;;;5059362;28;20025;-77
2021/12/08 11:31:34;;;;;;;4.43;1.90;;;7.00;99.90;;;;;;5050932;28;20028;-79
2021/12/08 11:34:02;;;;;;;6.72;1.70;;;7.00;99.90;;;;;;5051493;28;20074;-76
2021/12/08 11:36:34;;;;;;;3.78;1.83;;;7.00;99.90;;;;;;5051917;28;20098;-75
2021/12/08 11:39:07;;;;;;;5.07;2.03;;;7.10;99.90;;;;;;5051413;28;20120;-76
2021/12/08 11:41:37;;;;;;;3.10;1.83;;;7.10;99.90;;;;;;5052102;28;20032;-75
2021/12/08 11:44:25;;;;;;;8.18;2.17;;;7.10;99.90;;;;;;5052329;28;20042;-77
2021/12/08 11:46:58;;;;;;;9.88;1.73;;;7.10;99.90;;;;;;5049433;28;20040;-76
2021/12/08 11:49:25;;;;;;;4.47;1.90;;;7.10;99.90;;;;;;5052311;28;20074;-76
2021/12/08 11:52:00;;;;;;;3.92;1.90;;;7.20;99.90;;;;;;5051938;28;20535;-76
2021/12/08 11:54:42;;;;;;;7.07;1.80;;;7.20;99.90;;;;;;5050577;28;20032;-77
2021/12/08 11:57:18;;;;;;;3.22;1.63;;;7.20;99.90;;;;;;5051274;28;20059;-77
2021/12/08 12:00:04;;;;;;;5.75;2.55;;;7.30;99.90;;;;;;5047412;28;20025;-76
2021/12/08 12:02:47;;;;;;;4.25;1.90;;;7.30;99.90;;;;;;5046344;28;20522;-77
2021/12/08 12:05:20;;;;;;;9.27;2.17;;;7.30;99.90;;;;;;5048958;28;20036;-76
2021/12/08 12:07:47;;;;;;;4.38;1.80;;;7.30;99.90;;;;;;5050958;28;20041;-77
2021/12/08 12:10:15;;;;;;;4.03;1.98;;;7.30;99.90;;;;;;5050781;28;20420;-76
2021/12/08 12:12:41;;;;;;;4.45;1.90;;;7.30;99.90;;;;;;5051252;28;20067;-76
2021/12/08 12:15:09;;;;;;;4.18;1.63;;;7.40;99.90;;;;;;5048462;28;20025;-77
2021/12/08 12:17:35;;;;;;;6.55;1.98;;;7.40;99.90;;;;;;5050437;28;20051;-77
2021/12/08 12:20:30;;;;;;;2.80;1.65;;;7.40;99.90;;;;;;5050798;28;20549;-77
2021/12/08 12:23:31;;;;;;;6.43;1.70;;;7.40;99.90;;;;;;5050411;28;20033;-76
2021/12/08 12:26:39;;;;;;;5.18;1.67;;;7.50;99.90;;;;;;5050699;28;20043;-78
2021/12/08 12:29:17;;;;;;;5.07;1.83;;;7.50;99.90;;;;;;5052134;28;20174;-76
2021/12/08 12:32:17;;;;;;;5.70;1.77;;;7.50;99.90;;;;;;5048830;28;20476;-77
2021/12/08 12:34:43;;;;;;;7.60;1.48;;;7.60;99.90;;;;;;5037235;28;20489;-76
2021/12/08 12:37:14;;;;;;;7.95;1.98;;;7.60;99.90;;;;;;5045903;28;20775;-78
2021/12/08 12:40:12;;;;;;;4.43;1.85;;;7.60;99.90;;;;;;5047351;28;20037;-76
2021/12/08 12:42:52;;;;;;;4.35;1.40;;;7.60;99.90;;;;;;5049534;28;20037;-76
2021/12/08 12:45:18;;;;;;;5.57;1.98;;;7.70;99.90;;;;;;5036729;28;20044;-77
2021/12/08 12:48:11;;;;;;;3.00;1.60;;;7.70;99.90;;;;;;5044734;28;20435;-78
2021/12/08 12:50:57;;;;;;;3.30;1.75;;;7.70;99.90;;;;;;5049986;28;20029;-77
2021/12/08 12:53:41;;;;;;;5.47;1.58;;;7.70;99.90;;;;;;5053253;28;20036;-77
2021/12/08 12:56:09;;;;;;;2.95;1.58;;;7.80;99.90;;;;;;5053926;28;20033;-76
2021/12/08 12:58:43;;;;;;;9.27;1.98;;;7.70;99.90;;;;;;5053892;28;20021;-76
2021/12/08 13:01:12;;;;;;;5.53;1.83;;;7.70;99.90;;;;;;5048760;28;20037;-78
2021/12/08 13:03:50;;;;;;;4.10;1.50;;;7.80;99.90;;;;;;5052234;28;20025;-76
2021/12/08 13:06:37;;;;;;;4.70;1.63;;;7.80;99.90;;;;;;5053694;28;20040;-77
2021/12/08 13:09:08;;;;;;;5.30;1.98;;;7.80;99.90;;;;;;5054717;28;20028;-77
2021/12/08 13:11:51;;;;;;;10.52;1.92;;;7.80;99.90;;;;;;5052898;28;20689;-77
2021/12/08 13:14:26;;;;;;;5.03;1.77;;;7.80;99.90;;;;;;5048413;28;20036;-76
2021/12/08 13:17:14;;;;;;;5.55;1.63;;;7.90;99.90;;;;;;5052819;28;20144;-76
2021/12/08 13:19:43;;;;;;;4.45;1.60;;;7.90;99.90;;;;;;5052684;28;20052;-77
2021/12/08 13:22:29;;;;;;;4.47;1.63;;;8.00;99.90;;;;;;5053922;28;20388;-81
2021/12/08 13:24:55;;;;;;;2.25;1.35;;;8.00;99.90;;;;;;5052299;28;20120;-80
2021/12/08 13:27:28;;;;;;;7.75;1.73;;;8.00;99.90;;;;;;5053211;28;20047;-81
2021/12/08 13:30:09;;;;;;;3.95;1.55;;;8.00;99.90;;;;;;5052905;28;20108;-80
2021/12/08 13:32:45;;;;;;;3.75;2.13;;;8.00;99.90;;;;;;5050910;28;20102;-80
2021/12/08 13:35:11;;;;;;;5.05;1.35;;;8.10;99.90;;;;;;5051208;28;20044;-78
2021/12/08 13:37:37;;;;;;;5.30;1.70;;;8.10;99.90;;;;;;5052161;28;20082;-79
2021/12/08 13:40:09;;;;;;;3.75;1.60;;;8.10;99.90;;;;;;5054014;28;20029;-82
2021/12/08 13:42:50;;;;;;;8.48;2.00;;;8.10;99.90;;;;;;5051958;28;20098;-77
2021/12/08 13:45:16;;;;;;;4.20;1.70;;;8.00;99.90;;;;;;5052091;28;20039;-79
2021/12/08 13:47:44;;;;;;;6.35;1.77;;;8.00;99.90;;;;;;5055392;28;20086;-80
2021/12/08 13:50:10;;;;;;;2.83;1.52;;;8.00;99.90;;;;;;5054451;28;20067;-79
2021/12/08 13:52:39;;;;;;;3.63;1.60;;;8.00;99.90;;;;;;5053832;28;20068;-81
2021/12/08 13:55:07;;;;;;;7.03;1.80;;;7.90;99.90;;;;;;5052985;28;20140;-80
2021/12/08 13:57:35;;;;;;;5.35;1.63;;;7.90;99.90;;;;;;5053139;28;20025;-81
2021/12/08 14:00:06;;;;;;;7.82;2.10;;;7.80;99.90;;;;;;5052383;28;20489;-80
2021/12/08 14:02:38;;;;;;;6.38;2.10;;;7.80;99.90;;;;;;5051972;28;20040;-79
2021/12/08 14:05:15;;;;;;;5.50;1.95;;;7.80;99.90;;;;;;5052836;28;20115;-81
2021/12/08 14:07:49;;;;;;;5.10;1.95;;;7.70;99.90;;;;;;5050686;28;20120;-81